sensor_id;sensor_type;location;lat;lon;timestamp;P1;durP1;ratioP1;P2;durP2;ratioP2
3865;SDS011;1948;53.250;10.412;2024-01-30T00:01:38;11.30;;;7.43;;
3865;SDS011;1948;53.250;10.412;2024-01-30T00:04:05;8.33;;;7.50;;
3865;SDS011;1948;53.250;10.412;2024-01-30T00:06:32;16.17;;;8.10;;
3865;SDS011;1948;53.250;10.412;2024-01-30T00:09:05;10.40;;;7.90;;
3865;SDS011;1948;53.250;10.412;2024-01-30T00:11:35;11.63;;;8.60;;
3865;SDS011;1948;53.250;10.412;2024-01-30T00:14:03;12.60;;;8.67;;
3865;SDS011;1948;53.250;10.412;2024-01-30T00:16:35;11.50;;;8.27;;
3865;SDS011;1948;53.250;10.412;2024-01-30T00:19:03;14.90;;;8.13;;
3865;SDS011;1948;53.250;10.412;2024-01-30T00:21:30;12.53;;;9.10;;
3865;SDS011;1948;53.250;10.412;2024-01-30T00:23:59;9.37;;;7.87;;
3865;SDS011;1948;53.250;10.412;2024-01-30T00:26:27;15.23;;;8.53;;
3865;SDS011;1948;53.250;10.412;2024-01-30T00:28:56;11.03;;;8.03;;
3865;SDS011;1948;53.250;10.412;2024-01-30T00:31:23;13.83;;;9.07;;
3865;SDS011;1948;53.250;10.412;2024-01-30T00:33:51;9.20;;;7.93;;
3865;SDS011;1948;53.250;10.412;2024-01-30T00:36:18;11.83;;;8.20;;
3865;SDS011;1948;53.250;10.412;2024-01-30T00:38:51;13.00;;;8.40;;
3865;SDS011;1948;53.250;10.412;2024-01-30T00:41:20;8.93;;;8.03;;
3865;SDS011;1948;53.250;10.412;2024-01-30T00:43:50;14.03;;;8.67;;
3865;SDS011;1948;53.250;10.412;2024-01-30T00:46:19;11.63;;;8.73;;
3865;SDS011;1948;53.250;10.412;2024-01-30T00:48:48;9.33;;;8.33;;
3865;SDS011;1948;53.250;10.412;2024-01-30T00:51:15;10.23;;;8.20;;
3865;SDS011;1948;53.250;10.412;2024-01-30T00:53:43;12.43;;;9.70;;
3865;SDS011;1948;53.250;10.412;2024-01-30T00:56:10;9.57;;;8.03;;
3865;SDS011;1948;53.250;10.412;2024-01-30T00:58:37;10.73;;;9.13;;
3865;SDS011;1948;53.250;10.412;2024-01-30T01:01:04;10.83;;;8.63;;
3865;SDS011;1948;53.250;10.412;2024-01-30T01:03:34;21.43;;;9.30;;
3865;SDS011;1948;53.250;10.412;2024-01-30T01:06:01;11.53;;;8.37;;
3865;SDS011;1948;53.250;10.412;2024-01-30T01:08:29;13.37;;;9.03;;
3865;SDS011;1948;53.250;10.412;2024-01-30T01:11:01;10.80;;;8.50;;
3865;SDS011;1948;53.250;10.412;2024-01-30T01:13:31;16.10;;;8.00;;
3865;SDS011;1948;53.250;10.412;2024-01-30T01:16:03;13.47;;;8.40;;
3865;SDS011;1948;53.250;10.412;2024-01-30T01:18:31;9.83;;;8.43;;
3865;SDS011;1948;53.250;10.412;2024-01-30T01:21:00;15.80;;;8.40;;
3865;SDS011;1948;53.250;10.412;2024-01-30T01:23:27;9.27;;;8.37;;
3865;SDS011;1948;53.250;10.412;2024-01-30T01:25:57;13.23;;;9.87;;
3865;SDS011;1948;53.250;10.412;2024-01-30T01:28:27;9.57;;;8.60;;
3865;SDS011;1948;53.250;10.412;2024-01-30T01:30:54;24.43;;;8.83;;
3865;SDS011;1948;53.250;10.412;2024-01-30T01:33:25;16.60;;;9.00;;
3865;SDS011;1948;53.250;10.412;2024-01-30T01:35:52;13.83;;;8.80;;
3865;SDS011;1948;53.250;10.412;2024-01-30T01:38:19;8.67;;;7.80;;
3865;SDS011;1948;53.250;10.412;2024-01-30T01:40:49;11.93;;;9.10;;
3865;SDS011;1948;53.250;10.412;2024-01-30T01:43:17;10.90;;;8.10;;
3865;SDS011;1948;53.250;10.412;2024-01-30T01:45:49;15.70;;;8.90;;
3865;SDS011;1948;53.250;10.412;2024-01-30T01:48:20;12.13;;;8.50;;
3865;SDS011;1948;53.250;10.412;2024-01-30T01:50:47;12.20;;;8.27;;
3865;SDS011;1948;53.250;10.412;2024-01-30T01:53:18;11.87;;;8.97;;
3865;SDS011;1948;53.250;10.412;2024-01-30T01:55:48;12.40;;;9.23;;
3865;SDS011;1948;53.250;10.412;2024-01-30T01:58:15;11.77;;;8.67;;
3865;SDS011;1948;53.250;10.412;2024-01-30T02:00:43;11.63;;;8.47;;
3865;SDS011;1948;53.250;10.412;2024-01-30T02:03:10;11.43;;;8.30;;
3865;SDS011;1948;53.250;10.412;2024-01-30T02:05:43;10.30;;;9.17;;
3865;SDS011;1948;53.250;10.412;2024-01-30T02:08:16;11.83;;;8.30;;
3865;SDS011;1948;53.250;10.412;2024-01-30T02:10:46;13.70;;;9.80;;
3865;SDS011;1948;53.250;10.412;2024-01-30T02:13:13;9.13;;;8.20;;
3865;SDS011;1948;53.250;10.412;2024-01-30T02:15:45;13.47;;;9.67;;
3865;SDS011;1948;53.250;10.412;2024-01-30T02:18:17;11.30;;;9.27;;
3865;SDS011;1948;53.250;10.412;2024-01-30T02:20:46;14.10;;;9.17;;
3865;SDS011;1948;53.250;10.412;2024-01-30T02:23:16;11.97;;;9.67;;
3865;SDS011;1948;53.250;10.412;2024-01-30T02:25:46;11.83;;;9.00;;
3865;SDS011;1948;53.250;10.412;2024-01-30T02:28:16;12.97;;;9.50;;
3865;SDS011;1948;53.250;10.412;2024-01-30T02:30:43;13.00;;;9.80;;
3865;SDS011;1948;53.250;10.412;2024-01-30T02:33:16;14.77;;;9.70;;
3865;SDS011;1948;53.250;10.412;2024-01-30T02:35:47;11.00;;;8.90;;
3865;SDS011;1948;53.250;10.412;2024-01-30T02:38:17;14.10;;;9.90;;
3865;SDS011;1948;53.250;10.412;2024-01-30T02:40:44;17.17;;;10.93;;
3865;SDS011;1948;53.250;10.412;2024-01-30T02:43:12;14.67;;;9.73;;
3865;SDS011;1948;53.250;10.412;2024-01-30T02:45:43;13.50;;;9.27;;
3865;SDS011;1948;53.250;10.412;2024-01-30T02:48:10;15.60;;;10.50;;
3865;SDS011;1948;53.250;10.412;2024-01-30T02:50:40;14.60;;;9.30;;
3865;SDS011;1948;53.250;10.412;2024-01-30T02:53:07;14.30;;;10.53;;
3865;SDS011;1948;53.250;10.412;2024-01-30T02:55:34;16.07;;;9.43;;
3865;SDS011;1948;53.250;10.412;2024-01-30T02:58:01;16.27;;;9.77;;
3865;SDS011;1948;53.250;10.412;2024-01-30T03:00:28;13.97;;;9.77;;
3865;SDS011;1948;53.250;10.412;2024-01-30T03:02:56;14.00;;;9.97;;
3865;SDS011;1948;53.250;10.412;2024-01-30T03:05:23;18.60;;;10.30;;
3865;SDS011;1948;53.250;10.412;2024-01-30T03:07:50;17.03;;;10.57;;
3865;SDS011;1948;53.250;10.412;2024-01-30T03:10:18;10.43;;;8.77;;
3865;SDS011;1948;53.250;10.412;2024-01-30T03:12:47;14.40;;;9.93;;
3865;SDS011;1948;53.250;10.412;2024-01-30T03:15:14;9.73;;;8.80;;
3865;SDS011;1948;53.250;10.412;2024-01-30T03:17:44;14.17;;;9.90;;
3865;SDS011;1948;53.250;10.412;2024-01-30T03:20:13;20.67;;;10.40;;
3865;SDS011;1948;53.250;10.412;2024-01-30T03:22:40;15.73;;;10.80;;
3865;SDS011;1948;53.250;10.412;2024-01-30T03:25:08;11.30;;;9.60;;
3865;SDS011;1948;53.250;10.412;2024-01-30T03:27:35;16.27;;;9.73;;
3865;SDS011;1948;53.250;10.412;2024-01-30T03:30:02;12.00;;;10.17;;
3865;SDS011;1948;53.250;10.412;2024-01-30T03:32:32;18.60;;;10.03;;
3865;SDS011;1948;53.250;10.412;2024-01-30T03:35:01;11.03;;;9.90;;
3865;SDS011;1948;53.250;10.412;2024-01-30T03:37:31;11.10;;;9.70;;
3865;SDS011;1948;53.250;10.412;2024-01-30T03:39:58;11.70;;;9.57;;
3865;SDS011;1948;53.250;10.412;2024-01-30T03:42:26;15.23;;;10.10;;
3865;SDS011;1948;53.250;10.412;2024-01-30T03:44:53;11.83;;;10.53;;
3865;SDS011;1948;53.250;10.412;2024-01-30T03:47:21;12.80;;;9.67;;
3865;SDS011;1948;53.250;10.412;2024-01-30T03:49:48;11.80;;;9.60;;
3865;SDS011;1948;53.250;10.412;2024-01-30T03:52:17;12.33;;;10.00;;
3865;SDS011;1948;53.250;10.412;2024-01-30T03:54:47;10.40;;;9.40;;
3865;SDS011;1948;53.250;10.412;2024-01-30T03:57:14;11.90;;;10.37;;
3865;SDS011;1948;53.250;10.412;2024-01-30T03:59:43;18.37;;;11.07;;
3865;SDS011;1948;53.250;10.412;2024-01-30T04:02:12;11.53;;;10.40;;
3865;SDS011;1948;53.250;10.412;2024-01-30T04:04:39;14.87;;;10.83;;
3865;SDS011;1948;53.250;10.412;2024-01-30T04:07:09;14.57;;;11.20;;
3865;SDS011;1948;53.250;10.412;2024-01-30T04:09:38;17.27;;;10.07;;
3865;SDS011;1948;53.250;10.412;2024-01-30T04:12:10;15.03;;;10.97;;
3865;SDS011;1948;53.250;10.412;2024-01-30T04:14:40;15.50;;;10.70;;
3865;SDS011;1948;53.250;10.412;2024-01-30T04:17:07;20.23;;;11.27;;
3865;SDS011;1948;53.250;10.412;2024-01-30T04:19:37;10.77;;;9.70;;
3865;SDS011;1948;53.250;10.412;2024-01-30T04:22:05;13.67;;;10.97;;
3865;SDS011;1948;53.250;10.412;2024-01-30T04:24:32;15.63;;;10.63;;
3865;SDS011;1948;53.250;10.412;2024-01-30T04:26:59;16.10;;;11.90;;
3865;SDS011;1948;53.250;10.412;2024-01-30T04:29:26;18.73;;;12.03;;
3865;SDS011;1948;53.250;10.412;2024-01-30T04:31:56;16.73;;;11.10;;
3865;SDS011;1948;53.250;10.412;2024-01-30T04:34:27;14.17;;;10.87;;
3865;SDS011;1948;53.250;10.412;2024-01-30T04:36:54;15.40;;;10.57;;
3865;SDS011;1948;53.250;10.412;2024-01-30T04:39:21;14.37;;;11.80;;
3865;SDS011;1948;53.250;10.412;2024-01-30T04:41:49;15.90;;;10.60;;
3865;SDS011;1948;53.250;10.412;2024-01-30T04:44:16;15.40;;;10.87;;
3865;SDS011;1948;53.250;10.412;2024-01-30T04:46:45;14.03;;;10.03;;
3865;SDS011;1948;53.250;10.412;2024-01-30T04:49:12;12.47;;;10.80;;
3865;SDS011;1948;53.250;10.412;2024-01-30T04:51:42;14.87;;;11.47;;
3865;SDS011;1948;53.250;10.412;2024-01-30T04:54:12;20.40;;;12.13;;
3865;SDS011;1948;53.250;10.412;2024-01-30T04:56:39;14.73;;;10.93;;
3865;SDS011;1948;53.250;10.412;2024-01-30T04:59:06;17.50;;;11.97;;
3865;SDS011;1948;53.250;10.412;2024-01-30T05:01:35;15.97;;;11.20;;
3865;SDS011;1948;53.250;10.412;2024-01-30T05:04:03;14.63;;;11.50;;
3865;SDS011;1948;53.250;10.412;2024-01-30T05:06:32;17.30;;;11.70;;
3865;SDS011;1948;53.250;10.412;2024-01-30T05:09:02;17.27;;;12.53;;
3865;SDS011;1948;53.250;10.412;2024-01-30T05:11:36;15.40;;;12.00;;
3865;SDS011;1948;53.250;10.412;2024-01-30T05:14:07;16.23;;;12.37;;
3865;SDS011;1948;53.250;10.412;2024-01-30T05:16:38;22.50;;;12.63;;
3865;SDS011;1948;53.250;10.412;2024-01-30T05:19:09;22.73;;;11.87;;
3865;SDS011;1948;53.250;10.412;2024-01-30T05:21:36;18.40;;;11.40;;
3865;SDS011;1948;53.250;10.412;2024-01-30T05:24:08;15.93;;;11.80;;
3865;SDS011;1948;53.250;10.412;2024-01-30T05:26:36;15.90;;;11.83;;
3865;SDS011;1948;53.250;10.412;2024-01-30T05:29:06;17.67;;;12.20;;
3865;SDS011;1948;53.250;10.412;2024-01-30T05:31:34;17.27;;;12.10;;
3865;SDS011;1948;53.250;10.412;2024-01-30T05:34:01;19.10;;;12.57;;
3865;SDS011;1948;53.250;10.412;2024-01-30T05:36:29;19.77;;;12.63;;
3865;SDS011;1948;53.250;10.412;2024-01-30T05:38:56;15.37;;;11.93;;
3865;SDS011;1948;53.250;10.412;2024-01-30T05:41:25;16.03;;;12.50;;
3865;SDS011;1948;53.250;10.412;2024-01-30T05:43:54;21.50;;;12.47;;
3865;SDS011;1948;53.250;10.412;2024-01-30T05:46:24;19.97;;;12.80;;
3865;SDS011;1948;53.250;10.412;2024-01-30T05:48:53;15.27;;;11.63;;
3865;SDS011;1948;53.250;10.412;2024-01-30T05:51:20;17.53;;;11.90;;
3865;SDS011;1948;53.250;10.412;2024-01-30T05:53:48;14.10;;;12.60;;
3865;SDS011;1948;53.250;10.412;2024-01-30T05:56:15;19.07;;;12.67;;
3865;SDS011;1948;53.250;10.412;2024-01-30T05:58:42;19.67;;;12.53;;
3865;SDS011;1948;53.250;10.412;2024-01-30T06:01:09;22.67;;;13.40;;
3865;SDS011;1948;53.250;10.412;2024-01-30T06:03:37;19.63;;;13.27;;
3865;SDS011;1948;53.250;10.412;2024-01-30T06:06:07;20.43;;;13.60;;
3865;SDS011;1948;53.250;10.412;2024-01-30T06:08:34;21.83;;;13.80;;
3865;SDS011;1948;53.250;10.412;2024-01-30T06:11:09;24.97;;;13.83;;
3865;SDS011;1948;53.250;10.412;2024-01-30T06:13:38;28.20;;;14.07;;
3865;SDS011;1948;53.250;10.412;2024-01-30T06:16:08;20.73;;;13.43;;
3865;SDS011;1948;53.250;10.412;2024-01-30T06:18:40;17.67;;;13.03;;
3865;SDS011;1948;53.250;10.412;2024-01-30T06:21:09;20.63;;;13.50;;
3865;SDS011;1948;53.250;10.412;2024-01-30T06:23:38;29.83;;;14.07;;
3865;SDS011;1948;53.250;10.412;2024-01-30T06:26:08;27.27;;;13.40;;
3865;SDS011;1948;53.250;10.412;2024-01-30T06:28:37;23.43;;;14.33;;
3865;SDS011;1948;53.250;10.412;2024-01-30T06:31:07;19.47;;;13.70;;
3865;SDS011;1948;53.250;10.412;2024-01-30T06:33:36;19.37;;;13.30;;
3865;SDS011;1948;53.250;10.412;2024-01-30T06:36:08;29.17;;;14.03;;
3865;SDS011;1948;53.250;10.412;2024-01-30T06:38:36;21.97;;;14.07;;
3865;SDS011;1948;53.250;10.412;2024-01-30T06:41:07;27.60;;;14.07;;
3865;SDS011;1948;53.250;10.412;2024-01-30T06:43:34;21.70;;;13.50;;
3865;SDS011;1948;53.250;10.412;2024-01-30T06:46:01;23.33;;;13.40;;
3865;SDS011;1948;53.250;10.412;2024-01-30T06:48:29;23.57;;;14.60;;
3865;SDS011;1948;53.250;10.412;2024-01-30T06:50:56;19.40;;;14.60;;
3865;SDS011;1948;53.250;10.412;2024-01-30T06:53:25;23.97;;;14.70;;
3865;SDS011;1948;53.250;10.412;2024-01-30T06:55:52;19.13;;;14.03;;
3865;SDS011;1948;53.250;10.412;2024-01-30T06:58:20;21.80;;;14.03;;
3865;SDS011;1948;53.250;10.412;2024-01-30T07:00:49;27.27;;;14.00;;
3865;SDS011;1948;53.250;10.412;2024-01-30T07:03:19;21.20;;;14.73;;
3865;SDS011;1948;53.250;10.412;2024-01-30T07:05:47;22.60;;;15.23;;
3865;SDS011;1948;53.250;10.412;2024-01-30T07:08:15;25.63;;;14.20;;
3865;SDS011;1948;53.250;10.412;2024-01-30T07:10:44;24.60;;;15.13;;
3865;SDS011;1948;53.250;10.412;2024-01-30T07:13:14;20.43;;;14.07;;
3865;SDS011;1948;53.250;10.412;2024-01-30T07:15:43;23.20;;;14.90;;
3865;SDS011;1948;53.250;10.412;2024-01-30T07:18:10;17.63;;;13.87;;
3865;SDS011;1948;53.250;10.412;2024-01-30T07:20:37;30.27;;;15.40;;
3865;SDS011;1948;53.250;10.412;2024-01-30T07:23:07;22.43;;;14.90;;
3865;SDS011;1948;53.250;10.412;2024-01-30T07:25:37;22.30;;;14.77;;
3865;SDS011;1948;53.250;10.412;2024-01-30T07:28:07;22.50;;;15.37;;
3865;SDS011;1948;53.250;10.412;2024-01-30T07:30:41;23.00;;;13.93;;
3865;SDS011;1948;53.250;10.412;2024-01-30T07:33:08;22.37;;;15.03;;
3865;SDS011;1948;53.250;10.412;2024-01-30T07:35:38;22.03;;;13.93;;
3865;SDS011;1948;53.250;10.412;2024-01-30T07:38:07;21.10;;;14.40;;
3865;SDS011;1948;53.250;10.412;2024-01-30T07:40:35;17.57;;;13.60;;
3865;SDS011;1948;53.250;10.412;2024-01-30T07:43:04;18.50;;;13.80;;
3865;SDS011;1948;53.250;10.412;2024-01-30T07:45:34;20.00;;;14.50;;
3865;SDS011;1948;53.250;10.412;2024-01-30T07:48:05;19.37;;;13.97;;
3865;SDS011;1948;53.250;10.412;2024-01-30T07:50:33;20.70;;;13.77;;
3865;SDS011;1948;53.250;10.412;2024-01-30T07:53:00;15.90;;;13.10;;
3865;SDS011;1948;53.250;10.412;2024-01-30T07:55:27;22.60;;;13.70;;
3865;SDS011;1948;53.250;10.412;2024-01-30T07:57:58;19.70;;;14.73;;
3865;SDS011;1948;53.250;10.412;2024-01-30T08:00:26;30.33;;;14.37;;
3865;SDS011;1948;53.250;10.412;2024-01-30T08:02:55;19.87;;;14.73;;
3865;SDS011;1948;53.250;10.412;2024-01-30T08:05:23;20.80;;;13.57;;
3865;SDS011;1948;53.250;10.412;2024-01-30T08:07:50;25.33;;;14.83;;
3865;SDS011;1948;53.250;10.412;2024-01-30T08:10:18;22.30;;;13.70;;
3865;SDS011;1948;53.250;10.412;2024-01-30T08:12:47;20.77;;;13.17;;
3865;SDS011;1948;53.250;10.412;2024-01-30T08:15:15;19.20;;;13.17;;
3865;SDS011;1948;53.250;10.412;2024-01-30T08:17:42;20.77;;;13.30;;
3865;SDS011;1948;53.250;10.412;2024-01-30T08:20:11;21.03;;;13.97;;
3865;SDS011;1948;53.250;10.412;2024-01-30T08:22:39;18.77;;;12.30;;
3865;SDS011;1948;53.250;10.412;2024-01-30T08:25:11;19.13;;;13.03;;
3865;SDS011;1948;53.250;10.412;2024-01-30T08:27:38;20.63;;;13.53;;
3865;SDS011;1948;53.250;10.412;2024-01-30T08:30:07;19.40;;;13.60;;
3865;SDS011;1948;53.250;10.412;2024-01-30T08:32:37;26.03;;;12.77;;
3865;SDS011;1948;53.250;10.412;2024-01-30T08:35:05;19.37;;;13.50;;
3865;SDS011;1948;53.250;10.412;2024-01-30T08:37:35;15.27;;;11.67;;
3865;SDS011;1948;53.250;10.412;2024-01-30T08:40:04;19.10;;;13.40;;
3865;SDS011;1948;53.250;10.412;2024-01-30T08:42:36;16.87;;;12.80;;
3865;SDS011;1948;53.250;10.412;2024-01-30T08:45:05;23.07;;;13.00;;
3865;SDS011;1948;53.250;10.412;2024-01-30T08:47:35;23.33;;;13.33;;
3865;SDS011;1948;53.250;10.412;2024-01-30T08:50:05;19.73;;;13.40;;
3865;SDS011;1948;53.250;10.412;2024-01-30T08:52:35;20.17;;;13.40;;
3865;SDS011;1948;53.250;10.412;2024-01-30T08:55:03;20.20;;;12.60;;
3865;SDS011;1948;53.250;10.412;2024-01-30T08:57:31;23.03;;;14.00;;
3865;SDS011;1948;53.250;10.412;2024-01-30T09:00:00;20.80;;;13.67;;
3865;SDS011;1948;53.250;10.412;2024-01-30T09:02:35;18.30;;;12.43;;
3865;SDS011;1948;53.250;10.412;2024-01-30T09:05:04;15.80;;;13.00;;
3865;SDS011;1948;53.250;10.412;2024-01-30T09:07:34;25.50;;;13.27;;
3865;SDS011;1948;53.250;10.412;2024-01-30T09:10:05;20.50;;;14.00;;
3865;SDS011;1948;53.250;10.412;2024-01-30T09:12:35;18.07;;;13.03;;
3865;SDS011;1948;53.250;10.412;2024-01-30T09:15:07;18.57;;;13.63;;
3865;SDS011;1948;53.250;10.412;2024-01-30T09:17:39;21.57;;;12.33;;
3865;SDS011;1948;53.250;10.412;2024-01-30T09:20:08;18.20;;;13.30;;
3865;SDS011;1948;53.250;10.412;2024-01-30T09:22:38;17.27;;;11.70;;
3865;SDS011;1948;53.250;10.412;2024-01-30T09:25:08;14.37;;;12.13;;
3865;SDS011;1948;53.250;10.412;2024-01-30T09:27:38;17.67;;;11.77;;
3865;SDS011;1948;53.250;10.412;2024-01-30T09:30:06;16.70;;;12.67;;
3865;SDS011;1948;53.250;10.412;2024-01-30T09:32:36;20.50;;;11.10;;
3865;SDS011;1948;53.250;10.412;2024-01-30T09:35:06;16.13;;;11.70;;
3865;SDS011;1948;53.250;10.412;2024-01-30T09:37:36;18.13;;;11.70;;
3865;SDS011;1948;53.250;10.412;2024-01-30T09:40:06;15.90;;;12.23;;
3865;SDS011;1948;53.250;10.412;2024-01-30T09:42:34;15.20;;;11.00;;
3865;SDS011;1948;53.250;10.412;2024-01-30T09:45:03;13.60;;;11.17;;
3865;SDS011;1948;53.250;10.412;2024-01-30T09:47:35;13.20;;;11.57;;
3865;SDS011;1948;53.250;10.412;2024-01-30T09:50:14;21.60;;;11.70;;
3865;SDS011;1948;53.250;10.412;2024-01-30T09:52:47;14.50;;;10.60;;
3865;SDS011;1948;53.250;10.412;2024-01-30T09:55:14;23.27;;;12.47;;
3865;SDS011;1948;53.250;10.412;2024-01-30T09:57:44;19.03;;;10.80;;
3865;SDS011;1948;53.250;10.412;2024-01-30T10:00:11;13.03;;;10.33;;
3865;SDS011;1948;53.250;10.412;2024-01-30T10:02:47;16.93;;;12.03;;
3865;SDS011;1948;53.250;10.412;2024-01-30T10:05:15;15.10;;;10.93;;
3865;SDS011;1948;53.250;10.412;2024-01-30T10:07:55;19.23;;;11.77;;
3865;SDS011;1948;53.250;10.412;2024-01-30T10:10:26;21.37;;;10.70;;
3865;SDS011;1948;53.250;10.412;2024-01-30T10:12:56;14.57;;;11.60;;
3865;SDS011;1948;53.250;10.412;2024-01-30T10:15:23;14.13;;;11.27;;
3865;SDS011;1948;53.250;10.412;2024-01-30T10:17:52;14.70;;;11.43;;
3865;SDS011;1948;53.250;10.412;2024-01-30T10:20:19;17.53;;;11.70;;
3865;SDS011;1948;53.250;10.412;2024-01-30T10:22:49;11.30;;;9.87;;
3865;SDS011;1948;53.250;10.412;2024-01-30T10:25:16;23.80;;;11.77;;
3865;SDS011;1948;53.250;10.412;2024-01-30T10:27:43;13.10;;;10.20;;
3865;SDS011;1948;53.250;10.412;2024-01-30T10:30:11;16.80;;;10.70;;
3865;SDS011;1948;53.250;10.412;2024-01-30T10:32:38;19.10;;;10.70;;
3865;SDS011;1948;53.250;10.412;2024-01-30T10:35:05;12.90;;;10.23;;
3865;SDS011;1948;53.250;10.412;2024-01-30T10:37:33;18.27;;;10.43;;
3865;SDS011;1948;53.250;10.412;2024-01-30T10:40:02;11.27;;;9.03;;
3865;SDS011;1948;53.250;10.412;2024-01-30T10:42:36;16.73;;;10.23;;
3865;SDS011;1948;53.250;10.412;2024-01-30T10:47:36;12.87;;;9.57;;
3865;SDS011;1948;53.250;10.412;2024-01-30T10:50:05;14.33;;;10.23;;
3865;SDS011;1948;53.250;10.412;2024-01-30T10:52:37;12.83;;;9.87;;
3865;SDS011;1948;53.250;10.412;2024-01-30T10:55:11;12.10;;;9.87;;
3865;SDS011;1948;53.250;10.412;2024-01-30T10:57:40;12.23;;;9.23;;
3865;SDS011;1948;53.250;10.412;2024-01-30T11:00:11;15.10;;;10.40;;
3865;SDS011;1948;53.250;10.412;2024-01-30T11:02:43;13.37;;;9.67;;
3865;SDS011;1948;53.250;10.412;2024-01-30T11:05:14;11.30;;;9.50;;
3865;SDS011;1948;53.250;10.412;2024-01-30T11:07:54;14.77;;;9.47;;
3865;SDS011;1948;53.250;10.412;2024-01-30T11:10:25;10.27;;;9.20;;
3865;SDS011;1948;53.250;10.412;2024-01-30T11:12:52;11.17;;;9.50;;
3865;SDS011;1948;53.250;10.412;2024-01-30T11:15:23;11.20;;;9.67;;
3865;SDS011;1948;53.250;10.412;2024-01-30T11:17:54;13.93;;;9.60;;
3865;SDS011;1948;53.250;10.412;2024-01-30T11:20:32;12.93;;;9.13;;
3865;SDS011;1948;53.250;10.412;2024-01-30T11:23:02;11.93;;;9.40;;
3865;SDS011;1948;53.250;10.412;2024-01-30T11:25:33;10.60;;;8.60;;
3865;SDS011;1948;53.250;10.412;2024-01-30T11:28:01;13.10;;;9.60;;
3865;SDS011;1948;53.250;10.412;2024-01-30T11:30:29;8.90;;;8.10;;
3865;SDS011;1948;53.250;10.412;2024-01-30T11:33:04;11.27;;;9.07;;
3865;SDS011;1948;53.250;10.412;2024-01-30T11:35:42;14.30;;;9.00;;
3865;SDS011;1948;53.250;10.412;2024-01-30T11:38:13;13.63;;;8.77;;
3865;SDS011;1948;53.250;10.412;2024-01-30T11:40:42;11.80;;;9.00;;
3865;SDS011;1948;53.250;10.412;2024-01-30T11:43:19;19.07;;;8.67;;
3865;SDS011;1948;53.250;10.412;2024-01-30T11:45:48;21.97;;;8.93;;
3865;SDS011;1948;53.250;10.412;2024-01-30T11:48:16;12.00;;;8.53;;
3865;SDS011;1948;53.250;10.412;2024-01-30T11:50:43;9.40;;;8.50;;
3865;SDS011;1948;53.250;10.412;2024-01-30T11:53:19;11.80;;;9.23;;
3865;SDS011;1948;53.250;10.412;2024-01-30T11:55:50;12.80;;;8.43;;
3865;SDS011;1948;53.250;10.412;2024-01-30T11:58:17;10.17;;;9.07;;
3865;SDS011;1948;53.250;10.412;2024-01-30T12:00:55;12.77;;;8.97;;
3865;SDS011;1948;53.250;10.412;2024-01-30T12:03:23;13.40;;;8.37;;
3865;SDS011;1948;53.250;10.412;2024-01-30T12:05:56;12.40;;;8.73;;
3865;SDS011;1948;53.250;10.412;2024-01-30T12:08:25;15.53;;;9.00;;
3865;SDS011;1948;53.250;10.412;2024-01-30T12:10:56;12.67;;;8.40;;
3865;SDS011;1948;53.250;10.412;2024-01-30T12:13:31;9.47;;;8.43;;
3865;SDS011;1948;53.250;10.412;2024-01-30T12:15:59;12.40;;;8.77;;
3865;SDS011;1948;53.250;10.412;2024-01-30T12:18:27;9.93;;;8.80;;
3865;SDS011;1948;53.250;10.412;2024-01-30T12:21:01;10.03;;;8.97;;
3865;SDS011;1948;53.250;10.412;2024-01-30T12:23:30;9.73;;;8.07;;
3865;SDS011;1948;53.250;10.412;2024-01-30T12:25:58;12.13;;;8.63;;
3865;SDS011;1948;53.250;10.412;2024-01-30T12:28:25;9.33;;;7.63;;
3865;SDS011;1948;53.250;10.412;2024-01-30T12:30:56;14.97;;;8.70;;
3865;SDS011;1948;53.250;10.412;2024-01-30T12:33:30;13.03;;;8.57;;
3865;SDS011;1948;53.250;10.412;2024-01-30T12:36:02;10.00;;;8.20;;
3865;SDS011;1948;53.250;10.412;2024-01-30T12:38:33;14.73;;;8.37;;
3865;SDS011;1948;53.250;10.412;2024-01-30T12:41:07;10.83;;;7.60;;
3865;SDS011;1948;53.250;10.412;2024-01-30T12:43:34;9.40;;;8.37;;
3865;SDS011;1948;53.250;10.412;2024-01-30T12:46:05;10.97;;;7.93;;
3865;SDS011;1948;53.250;10.412;2024-01-30T12:48:33;15.00;;;8.63;;
3865;SDS011;1948;53.250;10.412;2024-01-30T12:51:00;10.83;;;8.17;;
3865;SDS011;1948;53.250;10.412;2024-01-30T12:53:27;9.10;;;8.00;;
3865;SDS011;1948;53.250;10.412;2024-01-30T12:55:55;11.90;;;8.70;;
3865;SDS011;1948;53.250;10.412;2024-01-30T12:58:24;10.37;;;8.60;;
3865;SDS011;1948;53.250;10.412;2024-01-30T13:00:52;12.73;;;9.60;;
3865;SDS011;1948;53.250;10.412;2024-01-30T13:03:23;14.83;;;9.30;;
3865;SDS011;1948;53.250;10.412;2024-01-30T13:05:50;11.10;;;8.60;;
3865;SDS011;1948;53.250;10.412;2024-01-30T13:08:17;12.30;;;8.80;;
3865;SDS011;1948;53.250;10.412;2024-01-30T13:10:47;11.30;;;9.93;;
3865;SDS011;1948;53.250;10.412;2024-01-30T13:13:17;9.90;;;8.10;;
3865;SDS011;1948;53.250;10.412;2024-01-30T13:15:48;11.40;;;7.90;;
3865;SDS011;1948;53.250;10.412;2024-01-30T13:18:15;16.57;;;8.33;;
3865;SDS011;1948;53.250;10.412;2024-01-30T13:20:42;10.70;;;8.80;;
3865;SDS011;1948;53.250;10.412;2024-01-30T13:23:12;11.87;;;8.20;;
3865;SDS011;1948;53.250;10.412;2024-01-30T13:25:41;8.93;;;7.87;;
3865;SDS011;1948;53.250;10.412;2024-01-30T13:28:09;14.87;;;8.73;;
3865;SDS011;1948;53.250;10.412;2024-01-30T13:30:36;14.40;;;8.30;;
3865;SDS011;1948;53.250;10.412;2024-01-30T13:33:05;16.23;;;8.60;;
3865;SDS011;1948;53.250;10.412;2024-01-30T13:35:32;9.40;;;8.50;;
3865;SDS011;1948;53.250;10.412;2024-01-30T13:38:02;8.83;;;7.93;;
3865;SDS011;1948;53.250;10.412;2024-01-30T13:40:30;10.93;;;7.90;;
3865;SDS011;1948;53.250;10.412;2024-01-30T13:42:57;9.97;;;8.03;;
3865;SDS011;1948;53.250;10.412;2024-01-30T13:45:27;9.70;;;8.60;;
3865;SDS011;1948;53.250;10.412;2024-01-30T13:47:55;17.27;;;8.80;;
3865;SDS011;1948;53.250;10.412;2024-01-30T13:50:24;10.67;;;8.40;;
3865;SDS011;1948;53.250;10.412;2024-01-30T13:52:51;16.40;;;8.73;;
3865;SDS011;1948;53.250;10.412;2024-01-30T13:55:21;11.50;;;9.50;;
3865;SDS011;1948;53.250;10.412;2024-01-30T13:57:48;26.43;;;8.57;;
3865;SDS011;1948;53.250;10.412;2024-01-30T14:00:20;16.00;;;8.30;;
3865;SDS011;1948;53.250;10.412;2024-01-30T14:02:48;14.03;;;8.73;;
3865;SDS011;1948;53.250;10.412;2024-01-30T14:05:16;16.10;;;8.80;;
3865;SDS011;1948;53.250;10.412;2024-01-30T14:07:47;12.10;;;7.43;;
3865;SDS011;1948;53.250;10.412;2024-01-30T14:10:17;13.50;;;8.67;;
3865;SDS011;1948;53.250;10.412;2024-01-30T14:12:44;13.70;;;7.80;;
3865;SDS011;1948;53.250;10.412;2024-01-30T14:15:14;9.87;;;8.50;;
3865;SDS011;1948;53.250;10.412;2024-01-30T14:17:54;16.30;;;8.60;;
3865;SDS011;1948;53.250;10.412;2024-01-30T14:20:24;14.33;;;9.50;;
3865;SDS011;1948;53.250;10.412;2024-01-30T14:22:51;11.57;;;8.80;;
3865;SDS011;1948;53.250;10.412;2024-01-30T14:25:20;9.37;;;8.27;;
3865;SDS011;1948;53.250;10.412;2024-01-30T14:27:50;24.53;;;8.60;;
3865;SDS011;1948;53.250;10.412;2024-01-30T14:30:18;10.53;;;8.40;;
3865;SDS011;1948;53.250;10.412;2024-01-30T14:32:48;16.70;;;8.33;;
3865;SDS011;1948;53.250;10.412;2024-01-30T14:35:15;9.37;;;8.40;;
3865;SDS011;1948;53.250;10.412;2024-01-30T14:37:46;12.40;;;7.40;;
3865;SDS011;1948;53.250;10.412;2024-01-30T14:40:13;12.27;;;8.13;;
3865;SDS011;1948;53.250;10.412;2024-01-30T14:42:40;13.90;;;8.37;;
3865;SDS011;1948;53.250;10.412;2024-01-30T14:45:07;11.03;;;8.50;;
3865;SDS011;1948;53.250;10.412;2024-01-30T14:47:35;25.63;;;9.10;;
3865;SDS011;1948;53.250;10.412;2024-01-30T14:50:03;20.80;;;8.60;;
3865;SDS011;1948;53.250;10.412;2024-01-30T14:52:34;11.63;;;8.33;;
3865;SDS011;1948;53.250;10.412;2024-01-30T14:55:07;17.70;;;7.90;;
3865;SDS011;1948;53.250;10.412;2024-01-30T14:57:35;22.50;;;10.27;;